createdAt,value
2022-09-23T00:05:35.335Z,4385.18896
2022-09-23T00:20:37.536Z,1166.08801
2022-09-23T00:35:39.721Z,897.58728
2022-09-23T00:50:41.934Z,592.2525
2022-09-23T01:05:44.131Z,373.18695
2022-09-23T01:20:46.301Z,211.31105
2022-09-23T01:35:48.513Z,102.74757
2022-09-23T01:50:50.968Z,27.14087
2022-09-23T02:05:53.186Z,2.90795
2022-09-23T02:20:55.401Z,0
2022-09-23T02:35:57.654Z,0
2022-09-23T02:50:59.863Z,0
2022-09-23T03:06:02.057Z,0
2022-09-23T03:21:04.301Z,0
2022-09-23T03:36:06.523Z,0
2022-09-23T03:51:08.718Z,0
2022-09-23T04:06:10.922Z,0
2022-09-23T04:21:13.153Z,0
2022-09-23T04:36:15.472Z,0
2022-09-23T04:51:17.695Z,0
2022-09-23T05:06:19.924Z,0
2022-09-23T05:21:22.361Z,0
2022-09-23T05:36:24.563Z,0
2022-09-23T05:51:30.633Z,0
2022-09-23T06:06:33.239Z,0
2022-09-23T06:21:35.469Z,0
2022-09-23T06:36:43.187Z,0
2022-09-23T06:51:47.048Z,0
2022-09-23T07:06:49.238Z,0
2022-09-23T07:21:51.689Z,0
2022-09-23T07:36:53.951Z,0
2022-09-23T07:51:56.320Z,0
2022-09-23T08:06:58.509Z,0
2022-09-23T08:22:00.737Z,0
2022-09-23T08:37:02.941Z,0
2022-09-23T08:52:05.196Z,0
2022-09-23T09:07:34.554Z,0
2022-09-23T09:22:37.927Z,0
2022-09-23T09:37:40.143Z,0
2022-09-23T09:52:43.772Z,0
2022-09-23T10:07:45.968Z,0
2022-09-23T10:22:48.258Z,0
2022-09-23T10:37:50.446Z,0
2022-09-23T10:52:52.844Z,0
2022-09-23T11:07:55.060Z,0
2022-09-23T11:22:57.222Z,0
2022-09-23T11:37:59.417Z,0
2022-09-23T11:53:01.650Z,0
2022-09-23T12:08:04.037Z,0
2022-09-23T12:23:06.283Z,0
2022-09-23T12:38:08.582Z,0
2022-09-23T12:53:11.036Z,0
2022-09-23T13:08:13.371Z,0
2022-09-23T13:23:15.713Z,1.93863
2022-09-23T13:38:17.987Z,14.53975
2022-09-23T13:53:20.336Z,33.92609
2022-09-23T14:08:22.791Z,118.25664
2022-09-23T14:23:25.118Z,248.14508
2022-09-23T14:38:27.407Z,303.39615
2022-09-23T14:53:29.739Z,405.17438
2022-09-23T15:08:32.023Z,635.87177
2022-09-23T15:23:34.309Z,596.12976
2022-09-23T15:38:36.560Z,1131.19263
2022-09-23T15:53:38.914Z,2561.90405
2022-09-23T16:08:41.216Z,927.63611
2022-09-23T16:23:43.442Z,572.86621
2022-09-23T16:38:45.802Z,873.35437
2022-09-23T16:53:48.085Z,1721.50647
2022-09-23T17:08:50.360Z,1550.90674
2022-09-23T17:23:53.960Z,1200.01416
2022-09-23T17:38:56.278Z,2203.25684
2022-09-23T17:53:58.548Z,1910.52332
2022-09-23T18:09:00.938Z,2257.53857
2022-09-23T18:24:28.086Z,2997.1272
2022-09-23T18:39:33.667Z,3697.94336
2022-09-23T18:54:35.986Z,3379.03809
2022-09-23T19:09:38.276Z,2690.82324
2022-09-23T19:24:40.617Z,2892.44116
2022-09-23T19:39:43.024Z,2648.17334
2022-09-23T19:54:45.335Z,2345.74658
2022-09-23T20:09:47.586Z,2208.10352
2022-09-23T20:24:49.904Z,2525.07007
2022-09-23T20:39:52.244Z,2109.23315
2022-09-23T20:54:54.592Z,1341.5343
2022-09-23T21:09:56.871Z,2265.29321
2022-09-23T21:25:26.922Z,1746.70874
2022-09-23T21:40:30.157Z,1660.43958
2022-09-23T21:55:32.744Z,1709.87476
2022-09-23T22:10:35.045Z,1861.08813
2022-09-23T22:25:37.303Z,1929.90955
2022-09-23T22:40:39.761Z,3395.51636
2022-09-23T22:55:42.269Z,3190.02124
2022-09-23T23:10:44.543Z,2200.34888
2022-09-23T23:25:46.984Z,1239.7561
2022-09-23T23:40:49.352Z,1107.92896
2022-09-23T23:55:51.655Z,889.83276
